»·PEaware :: N261AB DSD-KLMT

N261AB :: DSD-KLMT

FLIGHT INFORMATION

Flight Status: Arrived
Operator: Privately registered:
United States
More flights under this callsign
Pilot: Brian K. (18535)
Aircraft: BEECH AIRCRAFT BARON
(BE58)
More flights by this aircraft type
Origin: DSD
Destination: KLMT Klamath Falls Intl
United States
More flights between these airports :: More routes between these airports
Route: T261 MIXUP
File this flight plan on PilotEdge
Remarks:
Altitude:
(Current/Filed)
10,000ft
Speed:
(Current/Filed)
180kts
Departed: 01-Feb-19 08:02 AM
Arrived: 01-Feb-19 08:58 AM
Distance/Time
Traveled:
Not Available
Distance/Time
To Go:
Arrived

Flight Plot

Page will automatically refresh every two minutes.

Flight plan parsing failed; only flown route is shown


Map Options




Map Legend


Flown Route
Filed Route
Departure Airport
Arrival Airport
Navaid (VOR, NDB)
Fix

Horizontal Profiles

Position Reports

Time Latitude Longitude Heading Altitude Ground
Speed
01-Feb-19 08:00 44.451321 -121.276599 187 9975ft 164kts
01-Feb-19 08:01 44.406110 -121.282756 187 9975ft 164kts
01-Feb-19 08:02 44.360797 -121.288915 187 9984ft 164kts
01-Feb-19 08:03 44.315571 -121.295053 187 9983ft 164kts
01-Feb-19 08:04 44.270346 -121.301182 187 9990ft 164kts
01-Feb-19 08:05 44.225379 -121.309382 190 9997ft 164kts
01-Feb-19 08:06 44.180457 -121.318890 190 10005ft 164kts
01-Feb-19 08:07 44.135561 -121.328385 190 10009ft 164kts
01-Feb-19 08:08 44.090598 -121.337881 190 10008ft 164kts
01-Feb-19 08:09 44.045701 -121.347348 190 10008ft 164kts
01-Feb-19 08:10 44.000772 -121.356809 190 10007ft 164kts
01-Feb-19 08:11 43.955987 -121.366225 190 10007ft 164kts
01-Feb-19 08:12 43.911049 -121.375658 190 10007ft 164kts
01-Feb-19 08:13 43.866778 -121.386167 192 10013ft 165kts
01-Feb-19 08:14 43.821508 -121.385863 158 10016ft 174kts
01-Feb-19 08:15 43.780776 -121.396262 221 10015ft 168kts
01-Feb-19 08:16 43.748461 -121.443052 221 10014ft 169kts
01-Feb-19 08:17 43.716146 -121.489875 221 10014ft 169kts
01-Feb-19 08:18 43.680420 -121.530213 205 10013ft 165kts
01-Feb-19 08:19 43.637681 -121.553145 198 10013ft 165kts
01-Feb-19 08:20 43.594057 -121.571736 197 10012ft 165kts
01-Feb-19 08:21 43.550201 -121.589528 197 10012ft 164kts
01-Feb-19 08:22 43.506298 -121.607223 197 10011ft 164kts
01-Feb-19 08:23 43.462657 -121.624743 197 10011ft 164kts
01-Feb-19 08:24 43.419004 -121.642233 197 10010ft 164kts
01-Feb-19 08:25 43.375974 -121.659443 196 10012ft 164kts
01-Feb-19 08:26 43.332385 -121.676875 196 10016ft 164kts
01-Feb-19 08:27 43.288865 -121.694245 196 10022ft 163kts
01-Feb-19 08:28 43.245642 -121.711459 195 10029ft 163kts
01-Feb-19 08:29 43.202425 -121.728645 195 10036ft 162kts
01-Feb-19 08:30 43.159179 -121.745803 195 10037ft 162kts
01-Feb-19 08:31 43.116081 -121.762887 195 10036ft 162kts
01-Feb-19 08:32 43.072750 -121.780045 195 9975ft 164kts
01-Feb-19 08:33 43.029537 -121.797121 195 9971ft 162kts
01-Feb-19 08:34 42.986452 -121.814123 195 9971ft 162kts
01-Feb-19 08:35 42.943428 -121.831081 195 9971ft 161kts
01-Feb-19 08:36 42.900711 -121.847893 196 9970ft 161kts
01-Feb-19 08:37 42.859373 -121.864146 196 9980ft 162kts
01-Feb-19 08:38 42.816935 -121.880806 196 9979ft 162kts
01-Feb-19 08:39 42.773911 -121.897668 196 9979ft 162kts
01-Feb-19 08:40 42.730882 -121.914507 196 9978ft 162kts
01-Feb-19 08:41 42.687983 -121.931271 196 9987ft 161kts
01-Feb-19 08:42 42.644916 -121.948077 196 9986ft 161kts
01-Feb-19 08:43 42.601911 -121.964832 196 9986ft 161kts
01-Feb-19 08:44 42.558921 -121.981556 196 9985ft 161kts
01-Feb-19 08:45 42.515120 -121.989132 161 9645ft 173kts
01-Feb-19 08:46 42.477380 -121.951290 148 8765ft 168kts
01-Feb-19 08:47 42.441543 -121.911793 147 8103ft 160kts
01-Feb-19 08:48 42.406873 -121.873666 147 8112ft 165kts
01-Feb-19 08:49 42.366648 -121.846905 162 7758ft 163kts
01-Feb-19 08:50 42.324464 -121.824094 161 7297ft 165kts
01-Feb-19 08:51 42.286624 -121.803561 161 6544ft 115kts
01-Feb-19 08:52 42.259964 -121.789278 161 5975ft 100kts
01-Feb-19 08:53 42.234418 -121.775506 160 5511ft 90kts
01-Feb-19 08:54 42.212240 -121.763604 160 5010ft 89kts
01-Feb-19 08:55 42.189390 -121.751414 159 4522ft 84kts
01-Feb-19 08:56 42.169568 -121.740541 160 4164ft 71kts
01-Feb-19 08:57 42.158452 -121.734589 155 4096ft 8kts
01-Feb-19 08:58 42.157620 -121.735479 272 4096ft 0kts
01-Feb-19 08:59 42.157813 -121.737143 310 4096ft 15kts
01-Feb-19 09:00 42.163292 -121.740468 284 4096ft 22kts
01-Feb-19 09:01 42.164599 -121.743616 270 4096ft 0kts
01-Feb-19 09:02 42.164599 -121.743616 270 4096ft 0kts

Navigation Log

Ident Type
Flight plan parsing failed, navigation log unavailable